الصفحة الرئيسية
METAR-TAF:

METAR-TAF

مطار :

مطار كيب تاون

كيب تاون, جنوب أفريقيا

دائرة عرض: 33-59S, خط طول: 018-36E, ارتفاع: 42 متر

مراقبة الطقس الحالي

تاريخ ووقت الإصدار 33 دقيقة قبل الساعة 04:00UTC
ريح 2 عقدة من الشمال الشرقي
درجة الحرارة 10°درجة مئوية
الرطوبة 93%
ضغط 1022 hPa
الرؤية 10 كم أو أكثر
الغيوم لا تقل 1500 م ولا وجود لمزنة ركامية السحاب الأسود

METAR: FACT 180400Z 04002KT CAVOK 10/09 Q1022 NOSIG

زمن: 06:33 (04:33 UTC)

توقعات

تاريخ ووقت الإصدار 6ساعات و 33 دقيقة قبل الساعة 22:00UTC
التوقعات صالحة من18 الساعة 00 UTC إلى 19 الساعة 06 UTC
ريح 3 عقدةمن اتجاهات متغيرة
الرؤية 10 كم أو أكثر
الغيوم لا تقل 1500 م ولا وجود لمزنة ركامية السحاب الأسود

TAF: FACT 172200Z 1800/1906 VRB03KT CAVOK TX26/1812Z TN09/1806Z

أرصاد الطقس والتوقعات من أكثر من 4000 مطار (تقارير الطقس للمطار METAR والتنبؤ بالطقس بالمطارTAF).

المحطات المتاحة هي النقط الصفراء والحمراء على الخريطة.

حرك المؤشر فوق النقطة لمعرفة اسم المحطة.

ثم انقر لمعرفة أرصاد وتوقعات الطقس.

لتغيير الخارطة: اضغط على الأزرار الخضراء مع رمز الصليب الأسود للتكبير. على الزر الأخضر مع شرطة للتصغير، أو على الأسهم الخضراء للخرائط المجاورة.


METAR-TAF: